sensor_id;sensor_type;location;lat;lon;timestamp;temperature;humidity
43884;DHT22;29544;52.018;5.810;2023-07-29T00:00:42;21.90;75.00
43884;DHT22;29544;52.018;5.810;2023-07-29T00:03:08;21.90;75.00
43884;DHT22;29544;52.018;5.810;2023-07-29T00:05:33;21.90;74.90
43884;DHT22;29544;52.018;5.810;2023-07-29T00:07:58;21.90;75.00
43884;DHT22;29544;52.018;5.810;2023-07-29T00:10:24;21.90;74.90
43884;DHT22;29544;52.018;5.810;2023-07-29T00:12:49;21.90;74.90
43884;DHT22;29544;52.018;5.810;2023-07-29T00:15:15;21.90;74.80
43884;DHT22;29544;52.018;5.810;2023-07-29T00:17:40;21.80;74.80
43884;DHT22;29544;52.018;5.810;2023-07-29T00:20:06;21.80;74.70
43884;DHT22;29544;52.018;5.810;2023-07-29T00:22:32;21.80;74.70
43884;DHT22;29544;52.018;5.810;2023-07-29T00:24:57;21.80;74.60
43884;DHT22;29544;52.018;5.810;2023-07-29T00:27:24;21.80;74.60
43884;DHT22;29544;52.018;5.810;2023-07-29T00:29:50;21.80;74.50
43884;DHT22;29544;52.018;5.810;2023-07-29T00:32:15;21.80;74.50
43884;DHT22;29544;52.018;5.810;2023-07-29T00:34:40;21.80;74.40
43884;DHT22;29544;52.018;5.810;2023-07-29T00:37:06;21.70;74.40
43884;DHT22;29544;52.018;5.810;2023-07-29T00:39:32;21.70;74.30
43884;DHT22;29544;52.018;5.810;2023-07-29T00:41:57;21.70;74.30
43884;DHT22;29544;52.018;5.810;2023-07-29T00:44:23;21.70;74.20
43884;DHT22;29544;52.018;5.810;2023-07-29T00:46:49;21.70;74.20
43884;DHT22;29544;52.018;5.810;2023-07-29T00:49:15;21.70;74.20
43884;DHT22;29544;52.018;5.810;2023-07-29T00:51:40;21.70;74.20
43884;DHT22;29544;52.018;5.810;2023-07-29T00:54:06;21.70;74.10
43884;DHT22;29544;52.018;5.810;2023-07-29T00:56:31;21.70;74.00
43884;DHT22;29544;52.018;5.810;2023-07-29T00:58:57;21.70;74.10
43884;DHT22;29544;52.018;5.810;2023-07-29T01:01:27;21.60;73.90
43884;DHT22;29544;52.018;5.810;2023-07-29T01:03:52;21.60;73.90
43884;DHT22;29544;52.018;5.810;2023-07-29T01:06:22;21.60;73.90
43884;DHT22;29544;52.018;5.810;2023-07-29T01:13:58;21.60;73.80
43884;DHT22;29544;52.018;5.810;2023-07-29T01:16:28;21.60;73.80
43884;DHT22;29544;52.018;5.810;2023-07-29T01:18:55;21.60;73.80
43884;DHT22;29544;52.018;5.810;2023-07-29T01:21:22;21.60;73.70
43884;DHT22;29544;52.018;5.810;2023-07-29T01:23:53;21.60;73.70
43884;DHT22;29544;52.018;5.810;2023-07-29T01:26:23;21.60;73.70
43884;DHT22;29544;52.018;5.810;2023-07-29T01:28:48;21.50;73.60
43884;DHT22;29544;52.018;5.810;2023-07-29T01:31:16;21.50;73.70
43884;DHT22;29544;52.018;5.810;2023-07-29T01:33:46;21.50;73.70
43884;DHT22;29544;52.018;5.810;2023-07-29T01:36:15;21.50;73.70
43884;DHT22;29544;52.018;5.810;2023-07-29T01:38:43;21.50;73.70
43884;DHT22;29544;52.018;5.810;2023-07-29T01:41:09;21.50;73.70
43884;DHT22;29544;52.018;5.810;2023-07-29T01:43:36;21.50;73.70
43884;DHT22;29544;52.018;5.810;2023-07-29T01:46:08;21.50;73.70
43884;DHT22;29544;52.018;5.810;2023-07-29T01:48:34;21.40;73.60
43884;DHT22;29544;52.018;5.810;2023-07-29T01:51:00;21.40;73.60
43884;DHT22;29544;52.018;5.810;2023-07-29T01:53:25;21.40;73.60
43884;DHT22;29544;52.018;5.810;2023-07-29T01:55:51;21.40;73.60
43884;DHT22;29544;52.018;5.810;2023-07-29T01:58:16;21.40;73.60
43884;DHT22;29544;52.018;5.810;2023-07-29T02:00:42;21.40;73.60
43884;DHT22;29544;52.018;5.810;2023-07-29T02:03:07;21.40;73.60
43884;DHT22;29544;52.018;5.810;2023-07-29T02:05:33;21.40;73.70
43884;DHT22;29544;52.018;5.810;2023-07-29T02:07:58;21.40;73.60
43884;DHT22;29544;52.018;5.810;2023-07-29T02:10:24;21.40;73.60
43884;DHT22;29544;52.018;5.810;2023-07-29T02:12:49;21.40;73.70
43884;DHT22;29544;52.018;5.810;2023-07-29T02:15:15;21.30;73.60
43884;DHT22;29544;52.018;5.810;2023-07-29T02:17:43;21.30;73.70
43884;DHT22;29544;52.018;5.810;2023-07-29T02:20:08;21.40;73.70
43884;DHT22;29544;52.018;5.810;2023-07-29T02:22:35;21.30;73.90
43884;DHT22;29544;52.018;5.810;2023-07-29T02:25:01;21.30;73.70
43884;DHT22;29544;52.018;5.810;2023-07-29T02:27:27;21.30;73.70
43884;DHT22;29544;52.018;5.810;2023-07-29T02:29:53;21.30;73.80
43884;DHT22;29544;52.018;5.810;2023-07-29T02:32:19;21.30;73.80
43884;DHT22;29544;52.018;5.810;2023-07-29T02:34:44;21.30;74.50
43884;DHT22;29544;52.018;5.810;2023-07-29T02:37:10;21.30;73.90
43884;DHT22;29544;52.018;5.810;2023-07-29T02:39:35;21.30;73.90
43884;DHT22;29544;52.018;5.810;2023-07-29T02:42:01;21.30;73.90
43884;DHT22;29544;52.018;5.810;2023-07-29T02:44:27;21.40;74.00
43884;DHT22;29544;52.018;5.810;2023-07-29T02:46:52;21.30;74.00
43884;DHT22;29544;52.018;5.810;2023-07-29T02:49:19;21.30;74.00
43884;DHT22;29544;52.018;5.810;2023-07-29T02:51:45;21.30;74.10
43884;DHT22;29544;52.018;5.810;2023-07-29T02:54:10;21.30;74.10
43884;DHT22;29544;52.018;5.810;2023-07-29T02:56:36;21.30;74.10
43884;DHT22;29544;52.018;5.810;2023-07-29T02:59:01;21.30;74.20
43884;DHT22;29544;52.018;5.810;2023-07-29T03:01:27;21.30;74.20
43884;DHT22;29544;52.018;5.810;2023-07-29T03:03:52;21.20;74.30
43884;DHT22;29544;52.018;5.810;2023-07-29T03:06:18;21.20;74.30
43884;DHT22;29544;52.018;5.810;2023-07-29T03:08:44;21.20;74.40
43884;DHT22;29544;52.018;5.810;2023-07-29T03:11:10;21.30;74.40
43884;DHT22;29544;52.018;5.810;2023-07-29T03:13:36;21.20;74.80
43884;DHT22;29544;52.018;5.810;2023-07-29T03:16:05;21.20;74.70
43884;DHT22;29544;52.018;5.810;2023-07-29T03:18:31;21.20;75.30
43884;DHT22;29544;52.018;5.810;2023-07-29T03:20:56;21.30;74.70
43884;DHT22;29544;52.018;5.810;2023-07-29T03:23:22;21.20;74.80
43884;DHT22;29544;52.018;5.810;2023-07-29T03:25:50;21.20;74.90
43884;DHT22;29544;52.018;5.810;2023-07-29T03:28:22;21.20;74.80
43884;DHT22;29544;52.018;5.810;2023-07-29T03:30:48;21.20;74.90
43884;DHT22;29544;52.018;5.810;2023-07-29T03:33:13;21.20;74.90
43884;DHT22;29544;52.018;5.810;2023-07-29T03:35:39;21.20;75.00
43884;DHT22;29544;52.018;5.810;2023-07-29T03:38:04;21.20;75.10
43884;DHT22;29544;52.018;5.810;2023-07-29T03:40:30;21.20;75.10
43884;DHT22;29544;52.018;5.810;2023-07-29T03:42:55;21.20;75.10
43884;DHT22;29544;52.018;5.810;2023-07-29T03:45:20;21.20;75.10
43884;DHT22;29544;52.018;5.810;2023-07-29T03:47:46;21.20;75.20
43884;DHT22;29544;52.018;5.810;2023-07-29T03:50:11;21.20;75.20
43884;DHT22;29544;52.018;5.810;2023-07-29T03:52:37;21.20;75.20
43884;DHT22;29544;52.018;5.810;2023-07-29T03:55:02;21.20;75.30
43884;DHT22;29544;52.018;5.810;2023-07-29T03:57:28;21.20;75.30
43884;DHT22;29544;52.018;5.810;2023-07-29T03:59:54;21.10;75.30
43884;DHT22;29544;52.018;5.810;2023-07-29T04:02:19;21.20;75.30
43884;DHT22;29544;52.018;5.810;2023-07-29T04:04:45;21.10;75.50
43884;DHT22;29544;52.018;5.810;2023-07-29T04:07:12;21.10;75.40
43884;DHT22;29544;52.018;5.810;2023-07-29T04:09:38;21.20;75.50
43884;DHT22;29544;52.018;5.810;2023-07-29T04:12:03;21.10;75.40
43884;DHT22;29544;52.018;5.810;2023-07-29T04:14:29;21.20;75.50
43884;DHT22;29544;52.018;5.810;2023-07-29T04:16:54;21.10;75.40
43884;DHT22;29544;52.018;5.810;2023-07-29T04:19:20;21.10;75.40
43884;DHT22;29544;52.018;5.810;2023-07-29T04:21:45;21.10;75.40
43884;DHT22;29544;52.018;5.810;2023-07-29T04:24:11;21.10;75.50
43884;DHT22;29544;52.018;5.810;2023-07-29T04:26:36;21.10;75.70
43884;DHT22;29544;52.018;5.810;2023-07-29T04:29:04;21.10;75.90
43884;DHT22;29544;52.018;5.810;2023-07-29T04:31:29;21.00;76.00
43884;DHT22;29544;52.018;5.810;2023-07-29T04:33:55;21.00;75.70
43884;DHT22;29544;52.018;5.810;2023-07-29T04:36:20;21.00;75.70
43884;DHT22;29544;52.018;5.810;2023-07-29T04:38:45;21.00;75.60
43884;DHT22;29544;52.018;5.810;2023-07-29T04:41:11;21.00;75.60
43884;DHT22;29544;52.018;5.810;2023-07-29T04:43:36;21.10;75.60
43884;DHT22;29544;52.018;5.810;2023-07-29T04:46:02;21.00;75.50
43884;DHT22;29544;52.018;5.810;2023-07-29T04:48:28;21.00;75.50
43884;DHT22;29544;52.018;5.810;2023-07-29T04:50:53;21.10;75.60
43884;DHT22;29544;52.018;5.810;2023-07-29T04:53:19;21.00;75.40
43884;DHT22;29544;52.018;5.810;2023-07-29T04:55:45;21.00;75.50
43884;DHT22;29544;52.018;5.810;2023-07-29T04:58:10;21.00;75.40
43884;DHT22;29544;52.018;5.810;2023-07-29T05:00:35;21.00;75.50
43884;DHT22;29544;52.018;5.810;2023-07-29T05:03:01;21.00;75.60
43884;DHT22;29544;52.018;5.810;2023-07-29T05:05:27;21.00;75.70
43884;DHT22;29544;52.018;5.810;2023-07-29T05:07:52;21.00;75.60
43884;DHT22;29544;52.018;5.810;2023-07-29T05:10:18;21.00;75.60
43884;DHT22;29544;52.018;5.810;2023-07-29T05:12:43;21.00;75.60
43884;DHT22;29544;52.018;5.810;2023-07-29T05:15:09;20.90;75.50
43884;DHT22;29544;52.018;5.810;2023-07-29T05:17:34;21.00;75.50
43884;DHT22;29544;52.018;5.810;2023-07-29T05:20:00;20.90;75.60
43884;DHT22;29544;52.018;5.810;2023-07-29T05:22:25;21.00;75.50
43884;DHT22;29544;52.018;5.810;2023-07-29T05:24:51;20.90;75.90
43884;DHT22;29544;52.018;5.810;2023-07-29T05:27:16;20.80;76.00
43884;DHT22;29544;52.018;5.810;2023-07-29T05:29:42;20.80;75.80
43884;DHT22;29544;52.018;5.810;2023-07-29T05:32:07;20.80;76.10
43884;DHT22;29544;52.018;5.810;2023-07-29T05:34:32;20.70;76.00
43884;DHT22;29544;52.018;5.810;2023-07-29T05:36:58;20.70;76.00
43884;DHT22;29544;52.018;5.810;2023-07-29T05:39:23;20.70;76.60
43884;DHT22;29544;52.018;5.810;2023-07-29T05:41:49;20.70;76.10
43884;DHT22;29544;52.018;5.810;2023-07-29T05:44:15;20.60;76.40
43884;DHT22;29544;52.018;5.810;2023-07-29T05:46:40;20.60;76.30
43884;DHT22;29544;52.018;5.810;2023-07-29T05:49:05;20.60;75.90
43884;DHT22;29544;52.018;5.810;2023-07-29T05:51:31;20.60;76.00
43884;DHT22;29544;52.018;5.810;2023-07-29T05:53:56;20.60;76.40
43884;DHT22;29544;52.018;5.810;2023-07-29T05:56:22;20.50;76.00
43884;DHT22;29544;52.018;5.810;2023-07-29T05:58:47;20.40;76.30
43884;DHT22;29544;52.018;5.810;2023-07-29T06:01:13;20.50;76.30
43884;DHT22;29544;52.018;5.810;2023-07-29T06:03:38;20.50;76.50
43884;DHT22;29544;52.018;5.810;2023-07-29T06:06:03;20.50;76.30
43884;DHT22;29544;52.018;5.810;2023-07-29T06:08:29;20.50;76.20
43884;DHT22;29544;52.018;5.810;2023-07-29T06:10:54;20.50;76.20
43884;DHT22;29544;52.018;5.810;2023-07-29T06:13:20;20.50;76.30
43884;DHT22;29544;52.018;5.810;2023-07-29T06:15:45;20.50;76.40
43884;DHT22;29544;52.018;5.810;2023-07-29T06:18:11;20.40;76.40
43884;DHT22;29544;52.018;5.810;2023-07-29T06:20:36;20.50;76.20
43884;DHT22;29544;52.018;5.810;2023-07-29T06:23:02;20.50;76.40
43884;DHT22;29544;52.018;5.810;2023-07-29T06:25:27;20.40;76.60
43884;DHT22;29544;52.018;5.810;2023-07-29T06:27:53;20.50;76.60
43884;DHT22;29544;52.018;5.810;2023-07-29T06:30:18;20.50;76.30
43884;DHT22;29544;52.018;5.810;2023-07-29T06:32:43;20.50;76.40
43884;DHT22;29544;52.018;5.810;2023-07-29T06:35:09;20.50;76.50
43884;DHT22;29544;52.018;5.810;2023-07-29T06:37:34;20.50;76.50
43884;DHT22;29544;52.018;5.810;2023-07-29T06:40:00;20.50;76.70
43884;DHT22;29544;52.018;5.810;2023-07-29T06:42:25;20.60;76.60
43884;DHT22;29544;52.018;5.810;2023-07-29T06:44:51;20.50;76.50
43884;DHT22;29544;52.018;5.810;2023-07-29T06:47:16;20.50;76.50
43884;DHT22;29544;52.018;5.810;2023-07-29T06:49:42;20.50;76.50
43884;DHT22;29544;52.018;5.810;2023-07-29T06:52:07;20.50;76.80
43884;DHT22;29544;52.018;5.810;2023-07-29T06:54:32;20.50;77.00
43884;DHT22;29544;52.018;5.810;2023-07-29T06:56:58;20.50;77.00
43884;DHT22;29544;52.018;5.810;2023-07-29T06:59:23;20.50;77.20
43884;DHT22;29544;52.018;5.810;2023-07-29T07:01:50;20.50;77.10
43884;DHT22;29544;52.018;5.810;2023-07-29T07:04:15;20.40;77.40
43884;DHT22;29544;52.018;5.810;2023-07-29T07:06:40;20.40;77.20
43884;DHT22;29544;52.018;5.810;2023-07-29T07:09:06;20.40;77.40
43884;DHT22;29544;52.018;5.810;2023-07-29T07:11:32;20.40;77.40
43884;DHT22;29544;52.018;5.810;2023-07-29T07:13:57;20.40;77.40
43884;DHT22;29544;52.018;5.810;2023-07-29T07:16:23;20.30;77.60
43884;DHT22;29544;52.018;5.810;2023-07-29T07:18:48;20.30;77.80
43884;DHT22;29544;52.018;5.810;2023-07-29T07:21:13;20.40;77.70
43884;DHT22;29544;52.018;5.810;2023-07-29T07:23:39;20.40;77.80
43884;DHT22;29544;52.018;5.810;2023-07-29T07:26:04;20.40;77.70
43884;DHT22;29544;52.018;5.810;2023-07-29T07:28:30;20.40;77.90
43884;DHT22;29544;52.018;5.810;2023-07-29T07:30:55;20.40;78.20
43884;DHT22;29544;52.018;5.810;2023-07-29T07:33:21;20.30;78.30
43884;DHT22;29544;52.018;5.810;2023-07-29T07:35:46;20.30;78.20
43884;DHT22;29544;52.018;5.810;2023-07-29T07:38:12;20.30;78.40
43884;DHT22;29544;52.018;5.810;2023-07-29T07:40:37;20.30;78.20
43884;DHT22;29544;52.018;5.810;2023-07-29T07:43:03;20.30;78.40
43884;DHT22;29544;52.018;5.810;2023-07-29T07:45:28;20.40;78.20
43884;DHT22;29544;52.018;5.810;2023-07-29T07:47:54;20.40;78.30
43884;DHT22;29544;52.018;5.810;2023-07-29T07:50:19;20.40;78.40
43884;DHT22;29544;52.018;5.810;2023-07-29T07:52:45;20.40;78.30
43884;DHT22;29544;52.018;5.810;2023-07-29T07:55:10;20.40;78.30
43884;DHT22;29544;52.018;5.810;2023-07-29T07:57:36;20.40;78.20
43884;DHT22;29544;52.018;5.810;2023-07-29T08:00:01;20.40;78.40
43884;DHT22;29544;52.018;5.810;2023-07-29T08:02:27;20.40;78.70
43884;DHT22;29544;52.018;5.810;2023-07-29T08:04:52;20.40;78.50
43884;DHT22;29544;52.018;5.810;2023-07-29T08:07:17;20.40;78.40
43884;DHT22;29544;52.018;5.810;2023-07-29T08:09:43;20.40;78.20
43884;DHT22;29544;52.018;5.810;2023-07-29T08:12:08;20.40;78.50
43884;DHT22;29544;52.018;5.810;2023-07-29T08:14:34;20.40;78.40
43884;DHT22;29544;52.018;5.810;2023-07-29T08:16:59;20.40;78.40
43884;DHT22;29544;52.018;5.810;2023-07-29T08:19:24;20.40;78.40
43884;DHT22;29544;52.018;5.810;2023-07-29T08:21:50;20.40;79.00
43884;DHT22;29544;52.018;5.810;2023-07-29T08:24:15;20.40;78.60
43884;DHT22;29544;52.018;5.810;2023-07-29T08:26:41;20.40;78.30
43884;DHT22;29544;52.018;5.810;2023-07-29T08:29:06;20.40;78.40
43884;DHT22;29544;52.018;5.810;2023-07-29T08:31:32;20.40;78.30
43884;DHT22;29544;52.018;5.810;2023-07-29T08:33:59;20.40;78.50
43884;DHT22;29544;52.018;5.810;2023-07-29T08:36:25;20.40;78.60
43884;DHT22;29544;52.018;5.810;2023-07-29T08:38:51;20.50;78.50
43884;DHT22;29544;52.018;5.810;2023-07-29T08:41:17;20.40;78.50
43884;DHT22;29544;52.018;5.810;2023-07-29T08:43:52;20.50;78.60
43884;DHT22;29544;52.018;5.810;2023-07-29T08:46:19;20.50;78.60
43884;DHT22;29544;52.018;5.810;2023-07-29T08:48:44;20.50;78.80
43884;DHT22;29544;52.018;5.810;2023-07-29T08:51:11;20.40;78.70
43884;DHT22;29544;52.018;5.810;2023-07-29T08:53:37;20.50;78.80
43884;DHT22;29544;52.018;5.810;2023-07-29T08:56:03;20.50;78.70
43884;DHT22;29544;52.018;5.810;2023-07-29T08:58:29;20.50;78.70
43884;DHT22;29544;52.018;5.810;2023-07-29T09:00:54;20.50;78.50
43884;DHT22;29544;52.018;5.810;2023-07-29T09:03:20;20.50;78.50
43884;DHT22;29544;52.018;5.810;2023-07-29T09:05:45;20.50;78.50
43884;DHT22;29544;52.018;5.810;2023-07-29T09:08:11;20.50;78.70
43884;DHT22;29544;52.018;5.810;2023-07-29T09:10:37;20.50;78.70
43884;DHT22;29544;52.018;5.810;2023-07-29T09:13:03;20.50;78.70
43884;DHT22;29544;52.018;5.810;2023-07-29T09:15:29;20.50;78.70
43884;DHT22;29544;52.018;5.810;2023-07-29T09:17:58;20.50;78.90
43884;DHT22;29544;52.018;5.810;2023-07-29T09:20:27;20.50;79.00
43884;DHT22;29544;52.018;5.810;2023-07-29T09:22:57;20.50;78.70
43884;DHT22;29544;52.018;5.810;2023-07-29T09:25:24;20.50;78.70
43884;DHT22;29544;52.018;5.810;2023-07-29T09:27:50;20.60;78.80
43884;DHT22;29544;52.018;5.810;2023-07-29T09:30:15;20.60;78.70
43884;DHT22;29544;52.018;5.810;2023-07-29T09:32:41;20.60;79.00
43884;DHT22;29544;52.018;5.810;2023-07-29T09:35:10;20.60;78.80
43884;DHT22;29544;52.018;5.810;2023-07-29T09:37:37;20.70;79.00
43884;DHT22;29544;52.018;5.810;2023-07-29T09:40:03;20.70;78.80
43884;DHT22;29544;52.018;5.810;2023-07-29T09:42:28;20.70;78.80
43884;DHT22;29544;52.018;5.810;2023-07-29T09:44:54;20.70;78.60
43884;DHT22;29544;52.018;5.810;2023-07-29T09:47:23;20.80;78.80
43884;DHT22;29544;52.018;5.810;2023-07-29T09:49:49;20.80;77.90
43884;DHT22;29544;52.018;5.810;2023-07-29T09:52:16;20.80;78.20
43884;DHT22;29544;52.018;5.810;2023-07-29T09:54:42;20.80;77.70
43884;DHT22;29544;52.018;5.810;2023-07-29T09:57:07;20.90;77.80
43884;DHT22;29544;52.018;5.810;2023-07-29T09:59:33;20.90;77.80
43884;DHT22;29544;52.018;5.810;2023-07-29T10:01:59;20.90;77.20
43884;DHT22;29544;52.018;5.810;2023-07-29T10:04:25;20.90;77.40
43884;DHT22;29544;52.018;5.810;2023-07-29T10:06:51;21.00;77.40
43884;DHT22;29544;52.018;5.810;2023-07-29T10:09:17;21.00;77.30
43884;DHT22;29544;52.018;5.810;2023-07-29T10:11:43;21.00;76.30
43884;DHT22;29544;52.018;5.810;2023-07-29T10:14:08;21.00;76.30
43884;DHT22;29544;52.018;5.810;2023-07-29T10:16:35;21.00;76.40
43884;DHT22;29544;52.018;5.810;2023-07-29T10:19:01;21.00;76.20
43884;DHT22;29544;52.018;5.810;2023-07-29T10:21:27;21.10;76.20
43884;DHT22;29544;52.018;5.810;2023-07-29T10:23:53;21.10;76.20
43884;DHT22;29544;52.018;5.810;2023-07-29T10:26:20;21.10;76.10
43884;DHT22;29544;52.018;5.810;2023-07-29T10:28:48;21.10;75.90
43884;DHT22;29544;52.018;5.810;2023-07-29T10:31:15;21.20;76.20
43884;DHT22;29544;52.018;5.810;2023-07-29T10:33:41;21.20;76.50
43884;DHT22;29544;52.018;5.810;2023-07-29T10:36:07;21.20;76.10
43884;DHT22;29544;52.018;5.810;2023-07-29T10:38:33;21.20;75.80
43884;DHT22;29544;52.018;5.810;2023-07-29T10:40:58;21.20;75.80
43884;DHT22;29544;52.018;5.810;2023-07-29T10:43:32;21.20;75.20
43884;DHT22;29544;52.018;5.810;2023-07-29T10:46:14;21.20;75.50
43884;DHT22;29544;52.018;5.810;2023-07-29T10:48:42;21.20;75.40
43884;DHT22;29544;52.018;5.810;2023-07-29T10:53:57;21.20;75.40
43884;DHT22;29544;52.018;5.810;2023-07-29T10:56:26;21.20;75.50
43884;DHT22;29544;52.018;5.810;2023-07-29T10:58:52;21.20;75.60
43884;DHT22;29544;52.018;5.810;2023-07-29T11:01:27;21.20;75.80
43884;DHT22;29544;52.018;5.810;2023-07-29T11:14:50;21.20;75.40
43884;DHT22;29544;52.018;5.810;2023-07-29T11:17:16;21.20;75.80
43884;DHT22;29544;52.018;5.810;2023-07-29T11:19:41;21.30;75.80
43884;DHT22;29544;52.018;5.810;2023-07-29T11:22:07;21.20;75.70
43884;DHT22;29544;52.018;5.810;2023-07-29T11:24:34;21.30;75.90
43884;DHT22;29544;52.018;5.810;2023-07-29T11:27:00;21.20;75.80
43884;DHT22;29544;52.018;5.810;2023-07-29T11:29:25;21.20;75.70
43884;DHT22;29544;52.018;5.810;2023-07-29T11:31:51;21.30;75.80
43884;DHT22;29544;52.018;5.810;2023-07-29T11:34:16;21.20;75.70
43884;DHT22;29544;52.018;5.810;2023-07-29T11:36:45;21.30;75.70
43884;DHT22;29544;52.018;5.810;2023-07-29T11:39:11;21.30;75.50
43884;DHT22;29544;52.018;5.810;2023-07-29T11:41:37;21.20;75.70
43884;DHT22;29544;52.018;5.810;2023-07-29T11:44:02;21.20;75.60
43884;DHT22;29544;52.018;5.810;2023-07-29T11:46:28;21.20;75.80
43884;DHT22;29544;52.018;5.810;2023-07-29T11:48:54;21.20;75.90
43884;DHT22;29544;52.018;5.810;2023-07-29T11:51:19;21.10;76.00
43884;DHT22;29544;52.018;5.810;2023-07-29T11:53:44;21.10;76.30
43884;DHT22;29544;52.018;5.810;2023-07-29T11:56:10;21.10;76.50
43884;DHT22;29544;52.018;5.810;2023-07-29T11:58:36;21.10;77.30
43884;DHT22;29544;52.018;5.810;2023-07-29T12:01:03;21.00;77.40
43884;DHT22;29544;52.018;5.810;2023-07-29T12:03:28;21.00;77.60
43884;DHT22;29544;52.018;5.810;2023-07-29T12:05:54;21.00;77.90
43884;DHT22;29544;52.018;5.810;2023-07-29T12:08:20;21.00;78.10
43884;DHT22;29544;52.018;5.810;2023-07-29T12:10:45;21.00;78.20
43884;DHT22;29544;52.018;5.810;2023-07-29T12:13:10;21.00;78.20
43884;DHT22;29544;52.018;5.810;2023-07-29T12:15:37;21.00;78.70
43884;DHT22;29544;52.018;5.810;2023-07-29T12:18:03;21.00;79.10
43884;DHT22;29544;52.018;5.810;2023-07-29T12:20:29;20.90;79.60
43884;DHT22;29544;52.018;5.810;2023-07-29T12:22:55;20.90;79.60
43884;DHT22;29544;52.018;5.810;2023-07-29T12:25:21;21.00;80.90
43884;DHT22;29544;52.018;5.810;2023-07-29T12:27:47;21.00;80.90
43884;DHT22;29544;52.018;5.810;2023-07-29T12:30:12;21.00;81.50
43884;DHT22;29544;52.018;5.810;2023-07-29T12:32:44;21.00;81.70
43884;DHT22;29544;52.018;5.810;2023-07-29T12:35:10;21.00;81.80
43884;DHT22;29544;52.018;5.810;2023-07-29T12:37:36;21.10;82.30
43884;DHT22;29544;52.018;5.810;2023-07-29T12:40:01;21.10;83.20
43884;DHT22;29544;52.018;5.810;2023-07-29T12:42:27;21.10;81.80
43884;DHT22;29544;52.018;5.810;2023-07-29T12:44:52;21.10;81.50
43884;DHT22;29544;52.018;5.810;2023-07-29T12:47:18;21.10;81.40
43884;DHT22;29544;52.018;5.810;2023-07-29T12:49:43;21.10;81.80
43884;DHT22;29544;52.018;5.810;2023-07-29T12:52:08;21.10;82.00
43884;DHT22;29544;52.018;5.810;2023-07-29T12:54:34;21.10;82.10
43884;DHT22;29544;52.018;5.810;2023-07-29T12:56:59;21.10;82.40
43884;DHT22;29544;52.018;5.810;2023-07-29T12:59:25;21.10;81.90
43884;DHT22;29544;52.018;5.810;2023-07-29T13:01:50;21.20;82.70
43884;DHT22;29544;52.018;5.810;2023-07-29T13:04:16;21.20;83.20
43884;DHT22;29544;52.018;5.810;2023-07-29T13:06:41;21.20;82.40
43884;DHT22;29544;52.018;5.810;2023-07-29T13:09:06;21.10;81.60
43884;DHT22;29544;52.018;5.810;2023-07-29T13:11:32;21.20;83.00
43884;DHT22;29544;52.018;5.810;2023-07-29T13:13:58;21.30;83.00
43884;DHT22;29544;52.018;5.810;2023-07-29T13:16:23;21.30;83.20
43884;DHT22;29544;52.018;5.810;2023-07-29T13:18:49;21.30;82.90
43884;DHT22;29544;52.018;5.810;2023-07-29T13:21:14;21.30;83.10
43884;DHT22;29544;52.018;5.810;2023-07-29T13:23:40;21.30;82.80
43884;DHT22;29544;52.018;5.810;2023-07-29T13:26:06;21.40;83.00
43884;DHT22;29544;52.018;5.810;2023-07-29T13:28:31;21.40;83.60
43884;DHT22;29544;52.018;5.810;2023-07-29T13:30:57;21.50;84.00
43884;DHT22;29544;52.018;5.810;2023-07-29T13:33:22;21.50;81.90
43884;DHT22;29544;52.018;5.810;2023-07-29T13:35:47;21.40;82.20
43884;DHT22;29544;52.018;5.810;2023-07-29T13:38:13;21.40;81.70
43884;DHT22;29544;52.018;5.810;2023-07-29T13:40:38;21.40;81.50
43884;DHT22;29544;52.018;5.810;2023-07-29T13:43:04;21.40;81.20
43884;DHT22;29544;52.018;5.810;2023-07-29T13:45:29;21.40;80.90
43884;DHT22;29544;52.018;5.810;2023-07-29T13:47:55;21.50;80.70
43884;DHT22;29544;52.018;5.810;2023-07-29T13:50:20;21.50;80.50
43884;DHT22;29544;52.018;5.810;2023-07-29T13:52:46;21.50;80.30
43884;DHT22;29544;52.018;5.810;2023-07-29T13:55:11;21.50;80.20
43884;DHT22;29544;52.018;5.810;2023-07-29T13:57:37;21.60;80.10
43884;DHT22;29544;52.018;5.810;2023-07-29T14:00:04;21.60;80.00
43884;DHT22;29544;52.018;5.810;2023-07-29T14:02:30;21.60;80.00
43884;DHT22;29544;52.018;5.810;2023-07-29T14:04:56;21.60;79.90
43884;DHT22;29544;52.018;5.810;2023-07-29T14:07:22;21.60;79.70
43884;DHT22;29544;52.018;5.810;2023-07-29T14:09:47;21.70;79.60
43884;DHT22;29544;52.018;5.810;2023-07-29T14:12:13;21.70;79.60
43884;DHT22;29544;52.018;5.810;2023-07-29T14:14:40;21.70;79.50
43884;DHT22;29544;52.018;5.810;2023-07-29T14:17:05;21.70;79.30
43884;DHT22;29544;52.018;5.810;2023-07-29T14:19:31;21.70;79.60
43884;DHT22;29544;52.018;5.810;2023-07-29T14:21:57;21.80;79.60
43884;DHT22;29544;52.018;5.810;2023-07-29T14:24:22;21.70;79.60
43884;DHT22;29544;52.018;5.810;2023-07-29T14:26:48;21.80;79.70
43884;DHT22;29544;52.018;5.810;2023-07-29T14:29:13;21.80;79.80
43884;DHT22;29544;52.018;5.810;2023-07-29T14:31:39;21.80;79.60
43884;DHT22;29544;52.018;5.810;2023-07-29T14:34:04;21.80;79.60
43884;DHT22;29544;52.018;5.810;2023-07-29T14:36:30;21.90;79.60
43884;DHT22;29544;52.018;5.810;2023-07-29T14:38:55;21.90;79.50
43884;DHT22;29544;52.018;5.810;2023-07-29T14:41:20;21.90;79.40
43884;DHT22;29544;52.018;5.810;2023-07-29T14:43:46;21.90;79.40
43884;DHT22;29544;52.018;5.810;2023-07-29T14:46:11;21.90;80.00
43884;DHT22;29544;52.018;5.810;2023-07-29T14:48:37;21.90;79.40
43884;DHT22;29544;52.018;5.810;2023-07-29T14:51:02;21.90;79.30
43884;DHT22;29544;52.018;5.810;2023-07-29T14:53:28;21.90;79.20
43884;DHT22;29544;52.018;5.810;2023-07-29T14:55:53;22.00;79.30
43884;DHT22;29544;52.018;5.810;2023-07-29T14:58:19;22.00;79.20
43884;DHT22;29544;52.018;5.810;2023-07-29T15:00:44;22.00;79.20
43884;DHT22;29544;52.018;5.810;2023-07-29T15:03:10;22.00;79.10
43884;DHT22;29544;52.018;5.810;2023-07-29T15:05:35;22.10;79.10
43884;DHT22;29544;52.018;5.810;2023-07-29T15:08:01;22.00;78.90
43884;DHT22;29544;52.018;5.810;2023-07-29T15:10:26;22.10;78.90
43884;DHT22;29544;52.018;5.810;2023-07-29T15:12:52;22.00;78.80
43884;DHT22;29544;52.018;5.810;2023-07-29T15:15:17;22.10;78.80
43884;DHT22;29544;52.018;5.810;2023-07-29T15:17:43;22.10;78.70
43884;DHT22;29544;52.018;5.810;2023-07-29T15:20:08;22.10;78.70
43884;DHT22;29544;52.018;5.810;2023-07-29T15:22:34;22.10;78.70
43884;DHT22;29544;52.018;5.810;2023-07-29T15:25:00;22.20;79.40
43884;DHT22;29544;52.018;5.810;2023-07-29T15:27:28;22.10;78.80
43884;DHT22;29544;52.018;5.810;2023-07-29T15:29:53;22.10;78.60
43884;DHT22;29544;52.018;5.810;2023-07-29T15:32:19;22.20;78.60
43884;DHT22;29544;52.018;5.810;2023-07-29T15:34:44;22.20;78.50
43884;DHT22;29544;52.018;5.810;2023-07-29T15:37:10;22.20;78.40
43884;DHT22;29544;52.018;5.810;2023-07-29T15:39:35;22.20;78.40